sensor_id;sensor_type;location;lat;lon;timestamp;temperature;humidity
15105;DHT22;7653;48.994;9.212;2022-07-23T00:01:31;25.20;30.10
15105;DHT22;7653;48.994;9.212;2022-07-23T00:03:57;25.30;29.80
15105;DHT22;7653;48.994;9.212;2022-07-23T00:06:23;25.30;29.60
15105;DHT22;7653;48.994;9.212;2022-07-23T00:08:49;25.30;29.60
15105;DHT22;7653;48.994;9.212;2022-07-23T00:11:15;25.30;29.80
15105;DHT22;7653;48.994;9.212;2022-07-23T00:13:41;25.30;29.00
15105;DHT22;7653;48.994;9.212;2022-07-23T00:16:07;25.30;29.00
15105;DHT22;7653;48.994;9.212;2022-07-23T00:18:33;25.20;28.90
15105;DHT22;7653;48.994;9.212;2022-07-23T00:20:58;25.10;29.10
15105;DHT22;7653;48.994;9.212;2022-07-23T00:23:24;25.00;28.80
15105;DHT22;7653;48.994;9.212;2022-07-23T00:25:51;25.10;28.00
15105;DHT22;7653;48.994;9.212;2022-07-23T00:28:18;25.10;26.70
15105;DHT22;7653;48.994;9.212;2022-07-23T00:30:46;25.20;26.80
15105;DHT22;7653;48.994;9.212;2022-07-23T00:33:18;25.10;26.60
15105;DHT22;7653;48.994;9.212;2022-07-23T00:35:47;25.20;26.30
15105;DHT22;7653;48.994;9.212;2022-07-23T00:38:15;25.20;26.20
15105;DHT22;7653;48.994;9.212;2022-07-23T00:40:44;25.20;26.00
15105;DHT22;7653;48.994;9.212;2022-07-23T00:43:13;25.10;25.80
15105;DHT22;7653;48.994;9.212;2022-07-23T00:45:55;25.20;25.00
15105;DHT22;7653;48.994;9.212;2022-07-23T00:48:21;25.20;24.70
15105;DHT22;7653;48.994;9.212;2022-07-23T00:50:46;25.30;25.30
15105;DHT22;7653;48.994;9.212;2022-07-23T00:53:13;25.30;26.10
15105;DHT22;7653;48.994;9.212;2022-07-23T00:55:39;25.10;26.20
15105;DHT22;7653;48.994;9.212;2022-07-23T00:58:06;25.00;25.40
15105;DHT22;7653;48.994;9.212;2022-07-23T01:00:35;25.10;25.30
15105;DHT22;7653;48.994;9.212;2022-07-23T01:03:06;25.10;24.80
15105;DHT22;7653;48.994;9.212;2022-07-23T01:05:32;25.10;25.20
15105;DHT22;7653;48.994;9.212;2022-07-23T01:07:58;25.00;25.10
15105;DHT22;7653;48.994;9.212;2022-07-23T01:10:25;25.00;24.90
15105;DHT22;7653;48.994;9.212;2022-07-23T01:13:01;24.90;25.80
15105;DHT22;7653;48.994;9.212;2022-07-23T01:15:28;24.90;25.70
15105;DHT22;7653;48.994;9.212;2022-07-23T01:17:57;24.80;25.60
15105;DHT22;7653;48.994;9.212;2022-07-23T01:20:28;24.90;25.60
15105;DHT22;7653;48.994;9.212;2022-07-23T01:23:18;24.80;26.40
15105;DHT22;7653;48.994;9.212;2022-07-23T01:25:52;24.80;26.10
15105;DHT22;7653;48.994;9.212;2022-07-23T01:28:23;24.70;26.80
15105;DHT22;7653;48.994;9.212;2022-07-23T01:30:55;24.60;26.70
15105;DHT22;7653;48.994;9.212;2022-07-23T01:33:24;24.60;27.20
15105;DHT22;7653;48.994;9.212;2022-07-23T01:35:50;24.60;27.10
15105;DHT22;7653;48.994;9.212;2022-07-23T01:38:19;24.40;27.60
15105;DHT22;7653;48.994;9.212;2022-07-23T01:40:51;24.40;28.40
15105;DHT22;7653;48.994;9.212;2022-07-23T01:43:22;24.30;28.90
15105;DHT22;7653;48.994;9.212;2022-07-23T01:45:48;24.40;29.10
15105;DHT22;7653;48.994;9.212;2022-07-23T01:51:01;24.30;29.50
15105;DHT22;7653;48.994;9.212;2022-07-23T01:53:27;24.20;29.20
15105;DHT22;7653;48.994;9.212;2022-07-23T01:55:59;24.00;31.70
15105;DHT22;7653;48.994;9.212;2022-07-23T01:58:26;24.00;32.80
15105;DHT22;7653;48.994;9.212;2022-07-23T02:00:52;23.90;32.50
15105;DHT22;7653;48.994;9.212;2022-07-23T02:03:19;23.90;30.60
15105;DHT22;7653;48.994;9.212;2022-07-23T02:05:45;23.70;32.60
15105;DHT22;7653;48.994;9.212;2022-07-23T02:08:12;23.60;31.80
15105;DHT22;7653;48.994;9.212;2022-07-23T02:10:38;23.70;31.60
15105;DHT22;7653;48.994;9.212;2022-07-23T02:18:30;23.00;36.60
15105;DHT22;7653;48.994;9.212;2022-07-23T02:20:57;23.00;37.50
15105;DHT22;7653;48.994;9.212;2022-07-23T02:23:23;23.10;35.90
15105;DHT22;7653;48.994;9.212;2022-07-23T02:25:48;23.20;35.00
15105;DHT22;7653;48.994;9.212;2022-07-23T02:28:15;22.80;37.30
15105;DHT22;7653;48.994;9.212;2022-07-23T02:30:47;22.70;37.90
15105;DHT22;7653;48.994;9.212;2022-07-23T02:33:18;22.70;36.80
15105;DHT22;7653;48.994;9.212;2022-07-23T02:35:43;22.80;37.00
15105;DHT22;7653;48.994;9.212;2022-07-23T02:38:10;22.90;37.00
15105;DHT22;7653;48.994;9.212;2022-07-23T02:40:36;22.90;35.70
15105;DHT22;7653;48.994;9.212;2022-07-23T02:43:02;23.00;35.00
15105;DHT22;7653;48.994;9.212;2022-07-23T02:45:28;23.10;35.40
15105;DHT22;7653;48.994;9.212;2022-07-23T02:47:53;23.10;35.40
15105;DHT22;7653;48.994;9.212;2022-07-23T02:50:19;23.10;35.50
15105;DHT22;7653;48.994;9.212;2022-07-23T02:52:48;23.00;35.40
15105;DHT22;7653;48.994;9.212;2022-07-23T02:55:17;23.00;37.20
15105;DHT22;7653;48.994;9.212;2022-07-23T02:57:44;23.00;37.20
15105;DHT22;7653;48.994;9.212;2022-07-23T03:00:10;23.10;36.70
15105;DHT22;7653;48.994;9.212;2022-07-23T03:02:37;23.00;36.40
15105;DHT22;7653;48.994;9.212;2022-07-23T03:05:07;23.20;35.00
15105;DHT22;7653;48.994;9.212;2022-07-23T03:07:39;23.30;33.80
15105;DHT22;7653;48.994;9.212;2022-07-23T03:10:15;23.20;35.30
15105;DHT22;7653;48.994;9.212;2022-07-23T03:12:46;23.20;36.00
15105;DHT22;7653;48.994;9.212;2022-07-23T03:15:17;23.20;36.10
15105;DHT22;7653;48.994;9.212;2022-07-23T03:17:43;23.10;35.70
15105;DHT22;7653;48.994;9.212;2022-07-23T03:20:12;23.20;35.20
15105;DHT22;7653;48.994;9.212;2022-07-23T03:22:39;23.30;33.40
15105;DHT22;7653;48.994;9.212;2022-07-23T03:25:05;23.30;33.50
15105;DHT22;7653;48.994;9.212;2022-07-23T03:27:31;23.20;34.60
15105;DHT22;7653;48.994;9.212;2022-07-23T03:29:58;23.20;33.70
15105;DHT22;7653;48.994;9.212;2022-07-23T03:32:27;23.20;34.20
15105;DHT22;7653;48.994;9.212;2022-07-23T03:35:03;23.10;34.20
15105;DHT22;7653;48.994;9.212;2022-07-23T03:37:29;23.10;34.50
15105;DHT22;7653;48.994;9.212;2022-07-23T03:39:54;23.20;34.10
15105;DHT22;7653;48.994;9.212;2022-07-23T03:42:20;23.10;34.30
15105;DHT22;7653;48.994;9.212;2022-07-23T03:44:46;23.10;33.20
15105;DHT22;7653;48.994;9.212;2022-07-23T03:47:12;23.20;33.20
15105;DHT22;7653;48.994;9.212;2022-07-23T03:49:43;23.30;33.60
15105;DHT22;7653;48.994;9.212;2022-07-23T03:52:19;23.30;35.00
15105;DHT22;7653;48.994;9.212;2022-07-23T03:57:34;23.00;37.10
15105;DHT22;7653;48.994;9.212;2022-07-23T04:00:02;23.00;37.40
15105;DHT22;7653;48.994;9.212;2022-07-23T04:02:31;22.90;38.30
15105;DHT22;7653;48.994;9.212;2022-07-23T04:04:57;22.80;38.70
15105;DHT22;7653;48.994;9.212;2022-07-23T04:07:22;22.90;38.80
15105;DHT22;7653;48.994;9.212;2022-07-23T04:09:53;22.80;40.10
15105;DHT22;7653;48.994;9.212;2022-07-23T04:12:32;22.80;42.10
15105;DHT22;7653;48.994;9.212;2022-07-23T04:17:44;22.70;38.40
15105;DHT22;7653;48.994;9.212;2022-07-23T04:20:12;22.70;37.90
15105;DHT22;7653;48.994;9.212;2022-07-23T04:22:38;22.80;38.60
15105;DHT22;7653;48.994;9.212;2022-07-23T04:25:19;22.70;37.00
15105;DHT22;7653;48.994;9.212;2022-07-23T04:27:44;22.80;37.20
15105;DHT22;7653;48.994;9.212;2022-07-23T04:30:12;22.90;37.70
15105;DHT22;7653;48.994;9.212;2022-07-23T04:32:38;23.00;38.10
15105;DHT22;7653;48.994;9.212;2022-07-23T04:35:04;22.90;39.80
15105;DHT22;7653;48.994;9.212;2022-07-23T04:40:12;22.80;42.10
15105;DHT22;7653;48.994;9.212;2022-07-23T04:42:38;22.50;43.60
15105;DHT22;7653;48.994;9.212;2022-07-23T04:45:07;22.10;46.60
15105;DHT22;7653;48.994;9.212;2022-07-23T04:47:32;21.90;47.00
15105;DHT22;7653;48.994;9.212;2022-07-23T04:50:03;21.80;45.20
15105;DHT22;7653;48.994;9.212;2022-07-23T04:52:30;22.00;43.80
15105;DHT22;7653;48.994;9.212;2022-07-23T04:54:56;22.30;45.80
15105;DHT22;7653;48.994;9.212;2022-07-23T04:57:21;22.40;47.60
15105;DHT22;7653;48.994;9.212;2022-07-23T04:59:47;22.10;49.50
15105;DHT22;7653;48.994;9.212;2022-07-23T05:02:14;21.80;48.90
15105;DHT22;7653;48.994;9.212;2022-07-23T05:04:40;22.00;45.90
15105;DHT22;7653;48.994;9.212;2022-07-23T05:07:06;22.30;44.30
15105;DHT22;7653;48.994;9.212;2022-07-23T05:09:32;22.50;42.60
15105;DHT22;7653;48.994;9.212;2022-07-23T05:12:01;22.50;43.50
15105;DHT22;7653;48.994;9.212;2022-07-23T05:14:26;22.40;44.10
15105;DHT22;7653;48.994;9.212;2022-07-23T05:16:55;22.40;43.10
15105;DHT22;7653;48.994;9.212;2022-07-23T05:19:24;22.50;39.30
15105;DHT22;7653;48.994;9.212;2022-07-23T05:21:50;22.40;40.30
15105;DHT22;7653;48.994;9.212;2022-07-23T05:24:21;22.60;38.80
15105;DHT22;7653;48.994;9.212;2022-07-23T05:26:48;22.80;37.00
15105;DHT22;7653;48.994;9.212;2022-07-23T05:29:19;22.90;37.10
15105;DHT22;7653;48.994;9.212;2022-07-23T05:31:45;22.80;36.40
15105;DHT22;7653;48.994;9.212;2022-07-23T05:34:11;22.90;36.60
15105;DHT22;7653;48.994;9.212;2022-07-23T05:36:41;22.90;36.00
15105;DHT22;7653;48.994;9.212;2022-07-23T05:39:08;23.10;35.20
15105;DHT22;7653;48.994;9.212;2022-07-23T05:41:41;23.00;35.70
15105;DHT22;7653;48.994;9.212;2022-07-23T05:44:12;23.10;36.10
15105;DHT22;7653;48.994;9.212;2022-07-23T05:46:44;23.20;34.30
15105;DHT22;7653;48.994;9.212;2022-07-23T05:49:15;23.20;33.80
15105;DHT22;7653;48.994;9.212;2022-07-23T05:51:41;23.30;34.00
15105;DHT22;7653;48.994;9.212;2022-07-23T05:54:11;23.20;34.30
15105;DHT22;7653;48.994;9.212;2022-07-23T05:56:45;22.90;35.20
15105;DHT22;7653;48.994;9.212;2022-07-23T05:59:12;22.80;35.60
15105;DHT22;7653;48.994;9.212;2022-07-23T06:01:44;22.80;35.50
15105;DHT22;7653;48.994;9.212;2022-07-23T06:04:10;22.70;36.80
15105;DHT22;7653;48.994;9.212;2022-07-23T06:06:36;22.40;39.30
15105;DHT22;7653;48.994;9.212;2022-07-23T06:09:01;21.50;46.00
15105;DHT22;7653;48.994;9.212;2022-07-23T06:11:33;21.00;60.30
15105;DHT22;7653;48.994;9.212;2022-07-23T06:14:21;20.80;62.80
15105;DHT22;7653;48.994;9.212;2022-07-23T06:16:52;20.60;60.20
15105;DHT22;7653;48.994;9.212;2022-07-23T06:19:18;20.50;65.30
15105;DHT22;7653;48.994;9.212;2022-07-23T06:21:45;20.60;65.40
15105;DHT22;7653;48.994;9.212;2022-07-23T06:24:14;20.60;66.30
15105;DHT22;7653;48.994;9.212;2022-07-23T06:26:40;20.70;66.10
15105;DHT22;7653;48.994;9.212;2022-07-23T06:29:06;20.60;69.80
15105;DHT22;7653;48.994;9.212;2022-07-23T06:31:38;20.90;73.80
15105;DHT22;7653;48.994;9.212;2022-07-23T06:34:18;20.80;75.90
15105;DHT22;7653;48.994;9.212;2022-07-23T06:44:22;21.10;82.20
15105;DHT22;7653;48.994;9.212;2022-07-23T06:56:54;21.30;70.50
15105;DHT22;7653;48.994;9.212;2022-07-23T06:59:29;21.20;76.10
15105;DHT22;7653;48.994;9.212;2022-07-23T07:01:55;21.10;75.70
15105;DHT22;7653;48.994;9.212;2022-07-23T07:04:26;20.50;84.60
15105;DHT22;7653;48.994;9.212;2022-07-23T07:07:03;19.80;86.70
15105;DHT22;7653;48.994;9.212;2022-07-23T07:09:30;19.40;92.10
15105;DHT22;7653;48.994;9.212;2022-07-23T07:11:56;19.20;91.60
15105;DHT22;7653;48.994;9.212;2022-07-23T07:14:22;19.20;92.60
15105;DHT22;7653;48.994;9.212;2022-07-23T07:16:51;19.30;93.80
15105;DHT22;7653;48.994;9.212;2022-07-23T07:19:16;19.30;96.40
15105;DHT22;7653;48.994;9.212;2022-07-23T07:21:42;19.40;97.10
15105;DHT22;7653;48.994;9.212;2022-07-23T07:24:08;19.20;98.20
15105;DHT22;7653;48.994;9.212;2022-07-23T07:26:33;19.20;98.30
15105;DHT22;7653;48.994;9.212;2022-07-23T07:28:59;19.30;99.90
15105;DHT22;7653;48.994;9.212;2022-07-23T07:31:25;19.40;99.90
15105;DHT22;7653;48.994;9.212;2022-07-23T07:33:50;19.20;99.90
15105;DHT22;7653;48.994;9.212;2022-07-23T07:36:16;19.10;99.50
15105;DHT22;7653;48.994;9.212;2022-07-23T07:38:42;19.10;99.90
15105;DHT22;7653;48.994;9.212;2022-07-23T07:41:08;19.20;99.90
15105;DHT22;7653;48.994;9.212;2022-07-23T07:43:39;19.60;99.90
15105;DHT22;7653;48.994;9.212;2022-07-23T07:46:05;19.40;99.90
15105;DHT22;7653;48.994;9.212;2022-07-23T07:48:55;20.00;99.90
15105;DHT22;7653;48.994;9.212;2022-07-23T07:51:27;20.30;99.90
15105;DHT22;7653;48.994;9.212;2022-07-23T07:53:57;20.50;99.90
15105;DHT22;7653;48.994;9.212;2022-07-23T07:56:25;20.60;99.90
15105;DHT22;7653;48.994;9.212;2022-07-23T07:58:56;20.70;99.90
15105;DHT22;7653;48.994;9.212;2022-07-23T08:01:22;20.90;99.90
15105;DHT22;7653;48.994;9.212;2022-07-23T08:03:48;21.00;97.80
15105;DHT22;7653;48.994;9.212;2022-07-23T08:06:13;21.10;94.80
15105;DHT22;7653;48.994;9.212;2022-07-23T08:08:42;21.10;96.30
15105;DHT22;7653;48.994;9.212;2022-07-23T08:11:13;21.20;97.90
15105;DHT22;7653;48.994;9.212;2022-07-23T08:13:39;21.30;97.90
15105;DHT22;7653;48.994;9.212;2022-07-23T08:25:22;21.00;99.90
15105;DHT22;7653;48.994;9.212;2022-07-23T08:36:58;21.00;99.50
15105;DHT22;7653;48.994;9.212;2022-07-23T08:42:21;20.90;94.10
15105;DHT22;7653;48.994;9.212;2022-07-23T08:50:24;20.90;99.90
15105;DHT22;7653;48.994;9.212;2022-07-23T08:52:52;20.90;99.90
15105;DHT22;7653;48.994;9.212;2022-07-23T08:55:19;21.00;99.80
15105;DHT22;7653;48.994;9.212;2022-07-23T08:57:52;21.00;99.20
15105;DHT22;7653;48.994;9.212;2022-07-23T09:00:22;21.10;99.70
15105;DHT22;7653;48.994;9.212;2022-07-23T09:02:53;21.10;99.90
15105;DHT22;7653;48.994;9.212;2022-07-23T09:05:19;21.30;99.90
15105;DHT22;7653;48.994;9.212;2022-07-23T09:10:30;21.70;99.90
15105;DHT22;7653;48.994;9.212;2022-07-23T09:16:13;22.20;93.00
15105;DHT22;7653;48.994;9.212;2022-07-23T09:21:41;22.30;86.70
15105;DHT22;7653;48.994;9.212;2022-07-23T09:24:19;22.40;79.00
15105;DHT22;7653;48.994;9.212;2022-07-23T09:26:47;22.20;86.50
15105;DHT22;7653;48.994;9.212;2022-07-23T09:29:19;22.20;87.30
15105;DHT22;7653;48.994;9.212;2022-07-23T09:31:59;22.40;91.90
15105;DHT22;7653;48.994;9.212;2022-07-23T09:34:37;22.30;87.80
15105;DHT22;7653;48.994;9.212;2022-07-23T09:43:02;22.10;72.80
15105;DHT22;7653;48.994;9.212;2022-07-23T09:45:28;21.80;65.90
15105;DHT22;7653;48.994;9.212;2022-07-23T09:48:12;21.70;75.20
15105;DHT22;7653;48.994;9.212;2022-07-23T09:50:39;22.20;84.60
15105;DHT22;7653;48.994;9.212;2022-07-23T09:53:05;22.40;76.40
15105;DHT22;7653;48.994;9.212;2022-07-23T09:55:32;22.40;70.60
15105;DHT22;7653;48.994;9.212;2022-07-23T09:58:07;22.70;66.90
15105;DHT22;7653;48.994;9.212;2022-07-23T10:00:40;22.90;64.50
15105;DHT22;7653;48.994;9.212;2022-07-23T10:03:09;23.10;62.60
15105;DHT22;7653;48.994;9.212;2022-07-23T10:06:00;23.00;62.90
15105;DHT22;7653;48.994;9.212;2022-07-23T10:08:57;23.20;63.50
15105;DHT22;7653;48.994;9.212;2022-07-23T10:11:24;23.20;59.30
15105;DHT22;7653;48.994;9.212;2022-07-23T10:13:51;22.70;61.80
15105;DHT22;7653;48.994;9.212;2022-07-23T10:16:21;22.70;61.00
15105;DHT22;7653;48.994;9.212;2022-07-23T10:21:42;23.20;56.80
15105;DHT22;7653;48.994;9.212;2022-07-23T10:33:38;23.50;48.70
15105;DHT22;7653;48.994;9.212;2022-07-23T10:36:19;23.80;49.50
15105;DHT22;7653;48.994;9.212;2022-07-23T10:41:40;24.00;45.60
15105;DHT22;7653;48.994;9.212;2022-07-23T10:46:32;24.20;41.40
15105;DHT22;7653;48.994;9.212;2022-07-23T10:49:29;24.40;43.50
15105;DHT22;7653;48.994;9.212;2022-07-23T11:01:38;25.40;40.50
15105;DHT22;7653;48.994;9.212;2022-07-23T11:04:05;25.80;38.70
15105;DHT22;7653;48.994;9.212;2022-07-23T11:09:42;25.60;34.00
15105;DHT22;7653;48.994;9.212;2022-07-23T11:12:32;25.50;38.30
15105;DHT22;7653;48.994;9.212;2022-07-23T11:15:12;25.40;36.10
15105;DHT22;7653;48.994;9.212;2022-07-23T11:20:18;25.50;36.70
15105;DHT22;7653;48.994;9.212;2022-07-23T11:25:35;25.70;32.90
15105;DHT22;7653;48.994;9.212;2022-07-23T11:28:18;25.60;35.10
15105;DHT22;7653;48.994;9.212;2022-07-23T11:33:41;25.90;35.30
15105;DHT22;7653;48.994;9.212;2022-07-23T11:36:06;26.00;38.00
15105;DHT22;7653;48.994;9.212;2022-07-23T11:38:32;26.40;33.30
15105;DHT22;7653;48.994;9.212;2022-07-23T11:40:58;26.40;31.00
15105;DHT22;7653;48.994;9.212;2022-07-23T11:43:24;26.10;31.50
15105;DHT22;7653;48.994;9.212;2022-07-23T11:45:52;26.20;31.40
15105;DHT22;7653;48.994;9.212;2022-07-23T11:48:24;26.20;28.70
15105;DHT22;7653;48.994;9.212;2022-07-23T11:50:51;26.20;28.00
15105;DHT22;7653;48.994;9.212;2022-07-23T11:57:08;26.30;28.60
15105;DHT22;7653;48.994;9.212;2022-07-23T12:00:36;26.80;26.80
15105;DHT22;7653;48.994;9.212;2022-07-23T12:10:01;27.20;25.80
15105;DHT22;7653;48.994;9.212;2022-07-23T12:12:44;27.20;25.90
15105;DHT22;7653;48.994;9.212;2022-07-23T12:15:14;27.20;24.90
15105;DHT22;7653;48.994;9.212;2022-07-23T12:17:42;27.20;24.70
15105;DHT22;7653;48.994;9.212;2022-07-23T12:20:12;27.50;23.40
15105;DHT22;7653;48.994;9.212;2022-07-23T12:22:47;27.50;23.80
15105;DHT22;7653;48.994;9.212;2022-07-23T12:25:17;27.50;23.60
15105;DHT22;7653;48.994;9.212;2022-07-23T12:27:45;27.70;22.70
15105;DHT22;7653;48.994;9.212;2022-07-23T12:30:20;27.80;21.90
15105;DHT22;7653;48.994;9.212;2022-07-23T12:32:47;27.80;21.90
15105;DHT22;7653;48.994;9.212;2022-07-23T12:38:48;27.70;22.80
15105;DHT22;7653;48.994;9.212;2022-07-23T12:41:52;27.50;21.70
15105;DHT22;7653;48.994;9.212;2022-07-23T12:44:18;27.50;21.70
15105;DHT22;7653;48.994;9.212;2022-07-23T12:46:50;27.60;21.80
15105;DHT22;7653;48.994;9.212;2022-07-23T12:49:26;27.80;22.20
15105;DHT22;7653;48.994;9.212;2022-07-23T12:51:51;28.00;22.00
15105;DHT22;7653;48.994;9.212;2022-07-23T12:54:17;27.50;23.80
15105;DHT22;7653;48.994;9.212;2022-07-23T12:56:46;27.70;22.20
15105;DHT22;7653;48.994;9.212;2022-07-23T12:59:14;27.90;21.90
15105;DHT22;7653;48.994;9.212;2022-07-23T13:01:43;28.10;22.00
15105;DHT22;7653;48.994;9.212;2022-07-23T13:09:00;28.40;20.80
15105;DHT22;7653;48.994;9.212;2022-07-23T13:11:26;28.20;21.50
15105;DHT22;7653;48.994;9.212;2022-07-23T13:13:52;28.90;20.60
15105;DHT22;7653;48.994;9.212;2022-07-23T13:16:19;28.60;22.30
15105;DHT22;7653;48.994;9.212;2022-07-23T13:18:44;28.90;19.80
15105;DHT22;7653;48.994;9.212;2022-07-23T13:21:10;28.90;18.20
15105;DHT22;7653;48.994;9.212;2022-07-23T13:23:36;28.60;20.10
15105;DHT22;7653;48.994;9.212;2022-07-23T13:26:03;28.90;18.20
15105;DHT22;7653;48.994;9.212;2022-07-23T13:28:29;29.00;19.50
15105;DHT22;7653;48.994;9.212;2022-07-23T13:30:55;29.90;17.70
15105;DHT22;7653;48.994;9.212;2022-07-23T13:39:49;29.50;15.00
15105;DHT22;7653;48.994;9.212;2022-07-23T13:42:15;30.00;14.40
15105;DHT22;7653;48.994;9.212;2022-07-23T13:44:41;30.50;14.60
15105;DHT22;7653;48.994;9.212;2022-07-23T13:47:06;29.70;15.40
15105;DHT22;7653;48.994;9.212;2022-07-23T13:50:07;30.00;14.40
15105;DHT22;7653;48.994;9.212;2022-07-23T13:52:47;30.50;14.60
15105;DHT22;7653;48.994;9.212;2022-07-23T13:55:12;30.00;14.40
15105;DHT22;7653;48.994;9.212;2022-07-23T13:57:38;30.20;13.70
15105;DHT22;7653;48.994;9.212;2022-07-23T14:00:05;30.70;12.00
15105;DHT22;7653;48.994;9.212;2022-07-23T14:02:33;31.20;13.10
15105;DHT22;7653;48.994;9.212;2022-07-23T14:04:58;31.80;12.00
15105;DHT22;7653;48.994;9.212;2022-07-23T14:07:24;30.60;12.40
15105;DHT22;7653;48.994;9.212;2022-07-23T14:09:50;30.10;14.10
15105;DHT22;7653;48.994;9.212;2022-07-23T14:12:16;30.20;13.70
15105;DHT22;7653;48.994;9.212;2022-07-23T14:14:41;30.80;12.70
15105;DHT22;7653;48.994;9.212;2022-07-23T14:17:08;31.30;11.90
15105;DHT22;7653;48.994;9.212;2022-07-23T14:19:34;30.30;12.10
15105;DHT22;7653;48.994;9.212;2022-07-23T14:22:00;30.10;13.20
15105;DHT22;7653;48.994;9.212;2022-07-23T14:24:26;30.40;12.20
15105;DHT22;7653;48.994;9.212;2022-07-23T14:26:51;30.20;13.80
15105;DHT22;7653;48.994;9.212;2022-07-23T14:29:17;30.40;13.00
15105;DHT22;7653;48.994;9.212;2022-07-23T14:31:43;30.90;12.80
15105;DHT22;7653;48.994;9.212;2022-07-23T14:34:08;30.60;12.40
15105;DHT22;7653;48.994;9.212;2022-07-23T14:36:34;30.00;13.20
15105;DHT22;7653;48.994;9.212;2022-07-23T14:39:00;30.10;13.40
15105;DHT22;7653;48.994;9.212;2022-07-23T14:41:26;30.80;12.20
15105;DHT22;7653;48.994;9.212;2022-07-23T14:43:52;30.20;13.60
15105;DHT22;7653;48.994;9.212;2022-07-23T14:46:17;30.30;13.10
15105;DHT22;7653;48.994;9.212;2022-07-23T14:48:43;30.30;14.00
15105;DHT22;7653;48.994;9.212;2022-07-23T14:51:09;30.50;14.50
15105;DHT22;7653;48.994;9.212;2022-07-23T14:53:35;30.90;12.40
15105;DHT22;7653;48.994;9.212;2022-07-23T14:56:21;32.10;11.90
15105;DHT22;7653;48.994;9.212;2022-07-23T14:59:16;30.80;12.60
15105;DHT22;7653;48.994;9.212;2022-07-23T15:01:41;31.50;11.20
15105;DHT22;7653;48.994;9.212;2022-07-23T15:06:52;31.10;12.80
15105;DHT22;7653;48.994;9.212;2022-07-23T15:09:18;30.90;12.60
15105;DHT22;7653;48.994;9.212;2022-07-23T15:11:43;30.50;13.00
15105;DHT22;7653;48.994;9.212;2022-07-23T15:14:09;31.00;13.00
15105;DHT22;7653;48.994;9.212;2022-07-23T15:16:35;30.60;13.10
15105;DHT22;7653;48.994;9.212;2022-07-23T15:22:02;32.10;11.00
15105;DHT22;7653;48.994;9.212;2022-07-23T15:24:27;31.10;12.80
15105;DHT22;7653;48.994;9.212;2022-07-23T15:26:53;30.70;13.40
15105;DHT22;7653;48.994;9.212;2022-07-23T15:32:10;31.20;12.60
15105;DHT22;7653;48.994;9.212;2022-07-23T15:34:39;31.90;11.80
15105;DHT22;7653;48.994;9.212;2022-07-23T15:37:07;31.50;11.80
15105;DHT22;7653;48.994;9.212;2022-07-23T15:39:33;30.40;13.70
15105;DHT22;7653;48.994;9.212;2022-07-23T15:42:04;30.10;14.40
15105;DHT22;7653;48.994;9.212;2022-07-23T15:44:33;30.40;14.60
15105;DHT22;7653;48.994;9.212;2022-07-23T15:49:56;29.40;16.00
15105;DHT22;7653;48.994;9.212;2022-07-23T15:52:21;30.90;13.50
15105;DHT22;7653;48.994;9.212;2022-07-23T15:54:47;31.30;12.70
15105;DHT22;7653;48.994;9.212;2022-07-23T15:57:13;31.10;12.30
15105;DHT22;7653;48.994;9.212;2022-07-23T15:59:38;31.10;13.30
15105;DHT22;7653;48.994;9.212;2022-07-23T16:02:04;30.70;13.20
15105;DHT22;7653;48.994;9.212;2022-07-23T16:04:34;30.50;14.60
15105;DHT22;7653;48.994;9.212;2022-07-23T16:07:01;30.10;14.40
15105;DHT22;7653;48.994;9.212;2022-07-23T16:09:26;30.20;14.50
15105;DHT22;7653;48.994;9.212;2022-07-23T16:11:52;29.50;15.10
15105;DHT22;7653;48.994;9.212;2022-07-23T16:14:20;28.70;17.10
15105;DHT22;7653;48.994;9.212;2022-07-23T16:16:46;28.70;18.10
15105;DHT22;7653;48.994;9.212;2022-07-23T16:19:11;29.20;16.90
15105;DHT22;7653;48.994;9.212;2022-07-23T16:21:37;28.90;17.00
15105;DHT22;7653;48.994;9.212;2022-07-23T16:24:11;29.10;18.00
15105;DHT22;7653;48.994;9.212;2022-07-23T16:26:50;28.90;17.20
15105;DHT22;7653;48.994;9.212;2022-07-23T16:32:05;29.30;18.00
15105;DHT22;7653;48.994;9.212;2022-07-23T16:34:32;28.80;18.10
15105;DHT22;7653;48.994;9.212;2022-07-23T16:36:58;29.30;17.40
15105;DHT22;7653;48.994;9.212;2022-07-23T16:39:28;29.10;18.10
15105;DHT22;7653;48.994;9.212;2022-07-23T16:42:04;29.30;17.00
15105;DHT22;7653;48.994;9.212;2022-07-23T16:44:32;29.30;17.20
15105;DHT22;7653;48.994;9.212;2022-07-23T16:46:58;30.00;15.90
15105;DHT22;7653;48.994;9.212;2022-07-23T16:49:24;28.90;18.20
15105;DHT22;7653;48.994;9.212;2022-07-23T16:51:49;28.60;18.50
15105;DHT22;7653;48.994;9.212;2022-07-23T16:57:02;29.50;16.90
15105;DHT22;7653;48.994;9.212;2022-07-23T16:59:27;28.50;18.00
15105;DHT22;7653;48.994;9.212;2022-07-23T17:04:34;28.00;19.80
15105;DHT22;7653;48.994;9.212;2022-07-23T17:07:01;28.10;19.70
15105;DHT22;7653;48.994;9.212;2022-07-23T17:09:30;27.80;20.20
15105;DHT22;7653;48.994;9.212;2022-07-23T17:11:58;28.10;20.20
15105;DHT22;7653;48.994;9.212;2022-07-23T17:14:27;28.50;20.20
15105;DHT22;7653;48.994;9.212;2022-07-23T17:16:54;28.70;18.90
15105;DHT22;7653;48.994;9.212;2022-07-23T17:19:20;28.60;18.80
15105;DHT22;7653;48.994;9.212;2022-07-23T17:21:48;27.80;21.00
15105;DHT22;7653;48.994;9.212;2022-07-23T17:24:17;27.80;20.60
15105;DHT22;7653;48.994;9.212;2022-07-23T17:26:43;27.80;21.00
15105;DHT22;7653;48.994;9.212;2022-07-23T17:29:09;28.20;20.70
15105;DHT22;7653;48.994;9.212;2022-07-23T17:31:35;28.10;20.80
15105;DHT22;7653;48.994;9.212;2022-07-23T17:34:00;28.00;20.90
15105;DHT22;7653;48.994;9.212;2022-07-23T17:36:26;27.80;21.80
15105;DHT22;7653;48.994;9.212;2022-07-23T17:38:52;27.70;21.30
15105;DHT22;7653;48.994;9.212;2022-07-23T17:41:19;27.70;21.80
15105;DHT22;7653;48.994;9.212;2022-07-23T17:43:44;27.70;21.80
15105;DHT22;7653;48.994;9.212;2022-07-23T17:46:10;28.00;21.00
15105;DHT22;7653;48.994;9.212;2022-07-23T17:48:36;27.70;21.20
15105;DHT22;7653;48.994;9.212;2022-07-23T17:51:01;27.30;22.50
15105;DHT22;7653;48.994;9.212;2022-07-23T17:53:30;27.20;22.90
15105;DHT22;7653;48.994;9.212;2022-07-23T17:56:01;27.20;22.70
15105;DHT22;7653;48.994;9.212;2022-07-23T17:58:35;27.40;22.10
15105;DHT22;7653;48.994;9.212;2022-07-23T18:01:16;27.20;23.20
15105;DHT22;7653;48.994;9.212;2022-07-23T18:03:56;27.30;22.80
15105;DHT22;7653;48.994;9.212;2022-07-23T18:06:23;27.50;23.00
15105;DHT22;7653;48.994;9.212;2022-07-23T18:08:50;27.50;21.70
15105;DHT22;7653;48.994;9.212;2022-07-23T18:14:08;27.40;22.90
15105;DHT22;7653;48.994;9.212;2022-07-23T18:16:37;27.30;23.30
15105;DHT22;7653;48.994;9.212;2022-07-23T18:19:05;27.70;25.70
15105;DHT22;7653;48.994;9.212;2022-07-23T18:21:32;27.50;24.20
15105;DHT22;7653;48.994;9.212;2022-07-23T18:26:49;27.00;25.70
15105;DHT22;7653;48.994;9.212;2022-07-23T18:29:19;27.10;25.80
15105;DHT22;7653;48.994;9.212;2022-07-23T18:31:50;27.30;25.90
15105;DHT22;7653;48.994;9.212;2022-07-23T18:34:15;27.10;25.80
15105;DHT22;7653;48.994;9.212;2022-07-23T18:36:44;27.20;26.40
15105;DHT22;7653;48.994;9.212;2022-07-23T18:39:11;27.20;27.20
15105;DHT22;7653;48.994;9.212;2022-07-23T18:42:01;27.30;26.70